Arkansaw, Wisconsin
Current Conditions -  °F | °C
As of 3:15 AM on Friday 28 Nov 2014 (Local Time) from KLUM Reporting Station
Light Snow Light Snow  
Wind Chill: -3°   Ceiling: 400
Heat Index: 10°   Visibility: 0.75mi
Dew Point:   Wind: 8mph
Humidity: 85%   Direction: 120°ESE
Pressure: 30.21"   Gusts: NA
Location:  44.63°N, 92.03°W
Report Text: KLUM 280915Z AUTO 12007KT 3/4SM -SN BKN004 OVC011 M12/M15 A3021 RMK AO2 T11251146
Loading
Personal Weather Stations






























Interactive Weather Map New forecast layout! Learn more

10-Day Weather Forecast

Advertisements
Track Severe Weather on mobile